Eagleville, Massachusetts
Current Conditions -  °F | °C
As of 8:52 AM on Thursday 23 Oct 2014 (Local Time) from KORE Reporting Station
Heavy Rain Heavy Rain  
Wind Chill: 44°   Ceiling: 4200
Heat Index: 48°   Visibility: 4mi
Dew Point: 47°   Wind: 9mph
Humidity: 96%   Direction: 350°N
Pressure: 29.75"   Gusts: NA
Location:  42.614°N, 72.3011°W
Report Text: KORE 231252Z AUTO 35008KT 4SM +RA BR BKN042 OVC065 09/08 A2975 RMK AO2 SLP077 P0038 T00890083
Loading
Personal Weather Stations






























Interactive Weather Map
Tropical Storm Tracking
New forecast layout! Learn more

10-Day Weather Forecast

Advertisements
Track Severe Weather on mobile